Sierra City, California
Current Conditions -  °F | °C
As of 11:52 PM on Tuesday 21 Oct 2014 (Local Time) from KBLU Reporting Station
Clear Clear  
Wind Chill: 47°   Ceiling: Unl
Heat Index: 47°   Visibility: 10mi
Dew Point: 23°   Wind: 3mph
Humidity: 39%   Direction: 100°E
Pressure: 30.12"   Gusts: NA
Location:  39.57°N, 120.64°W
Report Text: KBLU 220652Z AUTO 10003KT 10SM CLR 08/M05 A3012 RMK AO2 SLP163 T00831050
Loading
Personal Weather Stations






























Interactive Weather Map New forecast layout! Learn more

10-Day Weather Forecast

Advertisements
Track Severe Weather on mobile